UAL1555 MMPR-KORD
Flight info
| Callsign | UAL1555 |
|---|---|
| Flight time | N/A |
| Altitude | 33000 |
| Route | XUDED1A XUDED UT148 OTEKA UT1 MOV UJ31 PNG DCT JCT DCT SPS/N0463F350 DCT IRW DCT TUL DCT EOS DCT WELTS TRTLL6 |
| Aircraft | B738/M-SDE2E3FGHIRWXY/LB1 |
Departure
| Time | 2026-04-25 16:37 |
|---|---|
| Airport | Puerto Vallarta International Airport (MMPR) |
Arrival
| Time | N/A |
|---|---|
| Airport | Chicago O'Hare International Airport (KORD) |
| Time | Latitude | Longitude | Altitude | Speed | Heading |
|---|---|---|---|---|---|
| 2026-04-25 16:32 | 20.67826 | -105.25367 | 28 ft | 10 kts | 226° |
| 2026-04-25 16:32 | 20.67777 | -105.25424 | 28 ft | 11 kts | 228° |
| 2026-04-25 16:32 | 20.67721 | -105.25488 | 28 ft | 13 kts | 226° |
| 2026-04-25 16:33 | 20.67659 | -105.25560 | 28 ft | 13 kts | 228° |
| 2026-04-25 16:33 | 20.67598 | -105.25628 | 28 ft | 13 kts | 225° |
| 2026-04-25 16:33 | 20.67538 | -105.25697 | 28 ft | 12 kts | 227° |
| 2026-04-25 16:33 | 20.67479 | -105.25762 | 28 ft | 12 kts | 222° |
| 2026-04-25 16:34 | 20.67425 | -105.25828 | 28 ft | 12 kts | 231° |
| 2026-04-25 16:34 | 20.67353 | -105.25912 | 28 ft | 19 kts | 227° |
| 2026-04-25 16:34 | 20.67259 | -105.26019 | 28 ft | 19 kts | 227° |
| 2026-04-25 16:34 | 20.67169 | -105.26123 | 28 ft | 19 kts | 227° |
| 2026-04-25 16:35 | 20.67110 | -105.26190 | 29 ft | 18 kts | 226° |
| 2026-04-25 16:35 | 20.66999 | -105.26317 | 29 ft | 16 kts | 228° |
| 2026-04-25 16:35 | 20.66965 | -105.26379 | 29 ft | 8 kts | 268° |
| 2026-04-25 16:35 | 20.66986 | -105.26429 | 29 ft | 8 kts | 313° |
| 2026-04-25 16:36 | 20.67027 | -105.26470 | 30 ft | 8 kts | 315° |
| 2026-04-25 16:36 | 20.67040 | -105.26483 | 28 ft | 8 kts | 319° |
| 2026-04-25 16:36 | 20.67126 | -105.26429 | 30 ft | 24 kts | 51° |
| 2026-04-25 16:36 | 20.67430 | -105.26083 | 29 ft | 102 kts | 47° |
| 2026-04-25 16:37 | 20.68059 | -105.25363 | 31 ft | 165 kts | 47° |
| 2026-04-25 16:37 | 20.68924 | -105.24372 | 486 ft | 188 kts | 47° |
| 2026-04-25 16:37 | 20.69845 | -105.23312 | 1253 ft | 205 kts | 47° |
| 2026-04-25 16:37 | 20.70882 | -105.22130 | 1604 ft | 224 kts | 47° |
| 2026-04-25 16:38 | 20.71958 | -105.20901 | 2062 ft | 231 kts | 46° |
| 2026-04-25 16:38 | 20.73069 | -105.19627 | 2662 ft | 234 kts | 47° |
| 2026-04-25 16:38 | 20.74175 | -105.18355 | 3350 ft | 235 kts | 47° |
| 2026-04-25 16:38 | 20.75292 | -105.17068 | 4081 ft | 236 kts | 46° |
| 2026-04-25 16:39 | 20.76409 | -105.15780 | 4740 ft | 240 kts | 46° |